Time;durP1;ratioP1;P1;durP2;ratioP2;P2;SDS_P1;SDS_P2;PMS_P1;PMS_P2;Temp;Humidity;BMP_temperature;BMP_pressure;BME280_temperature;BME280_humidity;BME280_pressure;Samples;Min_cycle;Max_cycle;Signal;HPM_P1;HPM_P2
2022/07/06 00:00:52;;;;;;;6.37;2.07;;;;;;;-145.18;100.00;46676.03;4858621;29;20117;-79
2022/07/06 00:03:17;;;;;;;3.23;1.60;;;;;;;-145.18;100.00;46636.94;4852110;29;20054;-78
2022/07/06 00:05:43;;;;;;;3.27;1.50;;;;;;;-145.18;100.00;46660.41;4867201;29;20149;-79
2022/07/06 00:08:08;;;;;;;2.83;1.60;;;;;;;-145.18;100.00;46636.94;4852285;29;20888;-79
2022/07/06 00:10:33;;;;;;;3.13;1.80;;;;;;;-145.18;100.00;46636.94;4835561;29;20526;-79
2022/07/06 00:12:59;;;;;;;2.00;1.33;;;;;;;-145.18;100.00;46660.41;4857929;29;20388;-79
2022/07/06 00:15:24;;;;;;;2.97;1.30;;;;;;;-145.18;100.00;46638.91;4857194;29;20029;-79
2022/07/06 00:17:49;;;;;;;2.37;1.20;;;;;;;-145.18;100.00;46660.41;4858431;29;20034;-79
2022/07/06 00:20:15;;;;;;;5.03;1.40;;;;;;;-145.18;100.00;46676.03;4857829;29;20443;-79
2022/07/06 00:22:40;;;;;;;3.43;1.17;;;;;;;-145.18;100.00;46636.94;4841547;29;20505;-79
2022/07/06 00:25:06;;;;;;;3.17;1.10;;;;;;;-145.18;100.00;46660.41;4858421;29;20037;-79
2022/07/06 00:27:32;;;;;;;2.80;1.40;;;;;;;-145.18;100.00;46660.41;4857975;29;20117;-79
2022/07/06 00:29:57;;;;;;;3.63;1.30;;;;;;;-145.18;100.00;46636.94;4858422;29;20372;-79
2022/07/06 00:32:22;;;;;;;3.23;1.10;;;;;;;-145.18;100.00;46636.94;4857943;29;20399;-79
2022/07/06 00:34:48;;;;;;;3.47;1.50;;;;;;;-145.18;100.00;46660.41;4858183;29;20072;-80
2022/07/06 00:37:15;;;;;;;2.90;1.27;;;;;;;-145.18;100.00;46640.88;4857681;29;20122;-80
2022/07/06 00:39:40;;;;;;;4.37;1.17;;;;;;;-145.18;100.00;46642.81;4858279;29;20037;-80
2022/07/06 00:42:06;;;;;;;3.00;1.10;;;;;;;-145.18;100.00;46636.94;4857749;29;20045;-80
2022/07/06 00:44:33;;;;;;;2.33;1.40;;;;;;;-145.18;100.00;46676.03;4858094;29;20037;-80
2022/07/06 00:46:58;;;;;;;3.87;1.37;;;;;;;-145.18;100.00;46635.00;4857448;29;20049;-79
2022/07/06 00:52:08;;;;;;;2.67;1.10;;;;;;;-145.18;100.00;46640.88;4858269;29;20129;-80
2022/07/06 00:54:35;;;;;;;3.13;1.10;;;;;;;-145.18;100.00;46676.03;4858025;29;20148;-79
2022/07/06 00:57:01;;;;;;;1.30;0.87;;;;;;;-145.18;100.00;46636.94;4858019;29;20076;-79
2022/07/06 00:59:27;;;;;;;3.07;1.20;;;;;;;-145.18;100.00;46676.03;4857563;29;20432;-79
2022/07/06 01:01:52;;;;;;;1.90;1.10;;;;;;;-145.18;100.00;46660.41;4841093;29;20049;-79
2022/07/06 01:04:18;;;;;;;3.20;1.10;;;;;;;-145.18;100.00;46660.41;4857734;29;20392;-79
2022/07/06 01:06:45;;;;;;;4.30;1.30;;;;;;;-145.18;100.00;46660.41;4857697;29;20037;-79
2022/07/06 01:09:11;;;;;;;5.07;1.60;;;;;;;-145.18;100.00;46660.41;4858076;29;20041;-80
2022/07/06 01:11:36;;;;;;;2.40;1.40;;;;;;;-145.18;100.00;46660.41;4857525;29;20280;-79
2022/07/06 01:14:02;;;;;;;4.57;1.40;;;;;;;-145.18;100.00;46660.41;4858022;29;20395;-79
2022/07/06 01:16:27;;;;;;;2.43;1.00;;;;;;;-145.18;100.00;46660.41;4857440;29;20034;-78
2022/07/06 01:18:53;;;;;;;2.03;1.00;;;;;;;-145.18;100.00;46660.41;4853995;29;20041;-78
2022/07/06 01:21:18;;;;;;;2.37;1.40;;;;;;;-145.18;100.00;46660.41;4857513;29;20052;-79
2022/07/06 01:23:46;;;;;;;2.30;1.20;;;;;;;-145.18;100.00;46660.41;4857732;29;20037;-77
2022/07/06 01:26:14;;;;;;;1.60;1.20;;;;;;;-145.18;100.00;46660.41;4858069;29;20061;-78
2022/07/06 01:28:40;;;;;;;2.57;1.23;;;;;;;-145.18;100.00;46660.41;4857216;29;20734;-79
2022/07/06 01:31:05;;;;;;;7.10;1.67;;;;;;;-145.18;100.00;46660.41;4857847;29;20284;-79
2022/07/06 01:33:31;;;;;;;4.40;1.80;;;;;;;-145.18;100.00;46660.41;4855480;29;20050;-79
2022/07/06 01:35:57;;;;;;;3.40;1.20;;;;;;;-145.18;100.00;46660.41;4846757;29;20045;-79
2022/07/06 01:38:22;;;;;;;2.70;1.30;;;;;;;-145.18;100.00;46660.41;4857168;29;20045;-79
2022/07/06 01:40:47;;;;;;;2.87;1.40;;;;;;;-145.18;100.00;46660.41;4857630;29;20063;-79
2022/07/06 01:43:13;;;;;;;2.93;1.37;;;;;;;-145.18;100.00;46660.41;4851183;29;20076;-79
2022/07/06 01:45:38;;;;;;;3.70;1.40;;;;;;;-145.18;100.00;46660.41;4855567;29;20072;-79
2022/07/06 01:48:06;;;;;;;6.30;1.50;;;;;;;-145.18;100.00;46660.41;4857332;29;20048;-79
2022/07/06 01:50:32;;;;;;;3.90;1.40;;;;;;;-145.18;100.00;46660.41;4857078;29;20048;-78
2022/07/06 01:53:00;;;;;;;4.87;1.30;;;;;;;-145.18;100.00;46660.41;4858028;29;20285;-79
2022/07/06 01:55:25;;;;;;;2.10;1.17;;;;;;;-145.18;100.00;46660.41;4860803;29;20045;-78
2022/07/06 01:57:50;;;;;;;4.47;1.60;;;;;;;-145.18;100.00;46660.41;4860469;29;20052;-79
2022/07/06 02:00:16;;;;;;;1.60;1.13;;;;;;;-145.18;100.00;46660.41;4870274;29;20390;-78
2022/07/06 02:02:41;;;;;;;3.47;1.40;;;;;;;-145.18;100.00;46660.41;5117989;23;20075;-80
2022/07/06 02:05:07;;;;;;;4.07;1.50;;;;;;;-145.18;100.00;46660.41;4912197;29;20092;-79
2022/07/06 02:07:32;;;;;;;5.87;1.40;;;;;;;-145.18;100.00;46660.41;4914322;29;20028;-79
2022/07/06 02:09:58;;;;;;;2.73;1.40;;;;;;;-145.18;100.00;46660.41;4916912;29;20124;-79
2022/07/06 02:12:23;;;;;;;2.97;1.43;;;;;;;-145.18;100.00;46660.41;4915616;29;20504;-79
2022/07/06 02:14:48;;;;;;;3.03;1.30;;;;;;;-145.18;100.00;46660.41;4916173;29;20047;-79
2022/07/06 02:17:14;;;;;;;5.30;1.60;;;;;;;-145.18;100.00;46660.41;4916280;29;20029;-79
2022/07/06 02:19:39;;;;;;;2.17;1.40;;;;;;;-145.18;100.00;46660.41;4918571;29;20496;-79
2022/07/06 02:22:04;;;;;;;7.60;2.27;;;;;;;-145.18;100.00;46660.41;4915798;29;20814;-78
2022/07/06 02:24:30;;;;;;;4.67;1.30;;;;;;;-145.18;100.00;46660.41;4921183;29;20040;-79
2022/07/06 02:26:55;;;;;;;4.10;1.93;;;;;;;-145.18;100.00;46660.41;4934371;29;20377;-79
2022/07/06 02:29:21;;;;;;;3.33;1.37;;;;;;;-145.18;100.00;46660.41;4922654;29;20038;-79
2022/07/06 02:31:46;;;;;;;3.37;1.50;;;;;;;-145.18;100.00;46660.41;4934937;29;20415;-80
2022/07/06 02:34:12;;;;;;;6.80;1.70;;;;;;;-145.18;100.00;46660.41;4935112;29;20036;-79
2022/07/06 02:36:37;;;;;;;6.20;1.73;;;;;;;-145.18;100.00;46660.41;4925594;29;20065;-79
2022/07/06 02:39:03;;;;;;;6.97;1.60;;;;;;;-145.18;100.00;46660.41;4930708;29;20043;-79
2022/07/06 02:41:28;;;;;;;3.87;1.50;;;;;;;-145.18;100.00;46660.41;4935295;29;20186;-79
2022/07/06 02:43:53;;;;;;;1.63;1.40;;;;;;;-145.18;100.00;46660.41;4934515;29;20046;-79
2022/07/06 02:46:19;;;;;;;2.60;1.80;;;;;;;-145.18;100.00;46660.41;4935112;29;20138;-78
2022/07/06 02:48:44;;;;;;;8.27;1.87;;;;;;;-145.18;100.00;46660.41;4934469;29;20055;-79
2022/07/06 02:51:09;;;;;;;6.67;1.90;;;;;;;-145.18;100.00;46660.41;4931119;29;20033;-79
2022/07/06 02:53:35;;;;;;;7.20;2.17;;;;;;;-145.18;100.00;46660.41;4915943;29;20047;-78
2022/07/06 02:56:00;;;;;;;3.33;2.00;;;;;;;-145.18;100.00;46660.41;4929749;29;20118;-79
2022/07/06 02:58:25;;;;;;;5.77;2.17;;;;;;;-145.18;100.00;46660.41;4930403;29;20055;-79
2022/07/06 03:00:51;;;;;;;3.60;1.90;;;;;;;-145.18;100.00;46660.41;4928070;29;20071;-79
2022/07/06 03:03:16;;;;;;;2.77;2.20;;;;;;;-145.18;100.00;46660.41;4916683;29;20100;-79
2022/07/06 03:05:42;;;;;;;4.23;1.97;;;;;;;-145.18;100.00;46660.41;4915616;29;20071;-79
2022/07/06 03:08:07;;;;;;;4.10;1.97;;;;;;;-145.18;100.00;46660.41;4914829;29;20028;-77
2022/07/06 03:10:32;;;;;;;4.77;2.10;;;;;;;-145.18;100.00;46660.41;4915774;29;20036;-79
2022/07/06 03:12:58;;;;;;;6.73;2.73;;;;;;;-145.18;100.00;46660.41;4915056;29;20602;-78
2022/07/06 03:15:23;;;;;;;2.97;1.90;;;;;;;-145.18;100.00;46660.41;4915713;29;20476;-79
2022/07/06 03:17:48;;;;;;;4.97;2.80;;;;;;;-145.18;100.00;46660.41;4898224;29;20036;-78
2022/07/06 03:20:14;;;;;;;5.77;2.43;;;;;;;-145.18;100.00;46660.41;4915309;29;20036;-77
2022/07/06 03:22:39;;;;;;;6.47;2.73;;;;;;;-145.18;100.00;46660.41;4915027;29;20072;-78
2022/07/06 03:25:05;;;;;;;6.33;2.87;;;;;;;-145.18;100.00;46660.41;4912407;29;20445;-78
2022/07/06 03:27:30;;;;;;;5.57;2.60;;;;;;;-145.18;100.00;46660.41;4914592;29;20044;-77
2022/07/06 03:29:55;;;;;;;5.83;3.17;;;;;;;-145.18;100.00;46660.41;4915199;29;20028;-78
2022/07/06 03:32:21;;;;;;;7.53;3.30;;;;;;;-145.18;100.00;46660.41;4909713;29;20127;-77
2022/07/06 03:34:46;;;;;;;5.70;2.97;;;;;;;-145.18;100.00;46660.41;4907058;29;20144;-77
2022/07/06 03:37:11;;;;;;;7.10;3.00;;;;;;;-145.18;100.00;46658.44;4911773;29;20489;-77
2022/07/06 03:39:37;;;;;;;6.37;3.37;;;;;;;-145.18;100.00;46654.53;4904838;29;20036;-77
2022/07/06 03:42:03;;;;;;;7.10;3.00;;;;;;;-145.18;100.00;46652.59;4914309;29;20103;-77
2022/07/06 03:44:28;;;;;;;5.00;3.10;;;;;;;-145.18;100.00;46658.44;4915088;29;20032;-77
2022/07/06 03:46:55;;;;;;;7.80;3.50;;;;;;;-145.18;100.00;46660.41;4914665;29;20508;-77
2022/07/06 03:49:21;;;;;;;10.17;3.23;;;;;;;-145.18;100.00;46656.50;4897476;29;20029;-78
2022/07/06 03:51:46;;;;;;;4.60;3.13;;;;;;;-145.18;100.00;46654.53;4915337;29;20321;-78
2022/07/06 03:54:12;;;;;;;4.40;3.10;;;;;;;-145.18;100.00;46660.41;4909845;29;20311;-78
2022/07/06 03:56:38;;;;;;;5.53;3.03;;;;;;;-145.18;100.00;46654.53;4897560;29;20045;-78
2022/07/06 03:59:04;;;;;;;4.63;2.70;;;;;;;-145.18;100.00;46656.50;4902279;29;20099;-78
2022/07/06 04:01:29;;;;;;;6.57;2.93;;;;;;;-145.18;100.00;46656.50;4901812;29;20856;-77
2022/07/06 04:03:55;;;;;;;8.27;3.97;;;;;;;-145.18;100.00;46658.44;4898418;29;20100;-78
2022/07/06 04:06:21;;;;;;;9.80;4.03;;;;;;;-145.18;100.00;46656.50;4895898;29;20040;-78
2022/07/06 04:08:46;;;;;;;7.80;3.30;;;;;;;-145.18;100.00;46658.44;4895210;29;20029;-78
2022/07/06 04:11:12;;;;;;;6.13;3.03;;;;;;;-145.18;100.00;46660.41;4895020;29;20409;-78
2022/07/06 04:13:38;;;;;;;6.03;3.30;;;;;;;-145.18;100.00;46660.41;4897435;29;20145;-78
2022/07/06 04:16:04;;;;;;;5.60;3.20;;;;;;;-145.18;100.00;46656.50;4895298;29;20039;-77
2022/07/06 04:18:30;;;;;;;5.33;2.73;;;;;;;-145.18;100.00;46656.50;4894798;29;20127;-78
2022/07/06 04:20:57;;;;;;;6.30;2.67;;;;;;;-145.18;100.00;46652.59;4895062;29;20465;-79
2022/07/06 04:23:23;;;;;;;4.80;2.60;;;;;;;-145.18;100.00;46658.44;4877926;29;20379;-78
2022/07/06 04:25:48;;;;;;;5.87;2.67;;;;;;;-145.18;100.00;46656.50;4894951;29;20044;-79
2022/07/06 04:28:13;;;;;;;4.90;2.50;;;;;;;-145.18;100.00;46658.44;4894685;29;20049;-79
2022/07/06 04:30:39;;;;;;;6.13;2.87;;;;;;;-145.18;100.00;46658.44;4895041;29;20070;-79
2022/07/06 04:33:04;;;;;;;3.93;2.83;;;;;;;-145.18;100.00;46658.44;4894350;29;20037;-79
2022/07/06 04:35:29;;;;;;;8.03;2.47;;;;;;;-145.18;100.00;46658.44;4895229;29;20076;-79
2022/07/06 04:37:55;;;;;;;4.20;2.77;;;;;;;-145.18;100.00;46656.50;4894634;29;20049;-78
2022/07/06 04:40:21;;;;;;;7.80;3.00;;;;;;;-145.18;100.00;46654.53;4894992;29;20033;-78
2022/07/06 04:42:46;;;;;;;4.53;2.67;;;;;;;-145.18;100.00;46656.50;4894475;29;20080;-78
2022/07/06 04:45:12;;;;;;;5.93;2.70;;;;;;;-145.18;100.00;46654.53;4894800;29;20446;-78
2022/07/06 04:47:37;;;;;;;6.73;3.03;;;;;;;-145.18;100.00;46654.53;4895261;29;20062;-76
2022/07/06 04:50:04;;;;;;;5.17;2.80;;;;;;;-145.18;100.00;46654.53;4895428;29;20069;-78
2022/07/06 04:52:29;;;;;;;6.00;2.67;;;;;;;-145.18;100.00;46654.53;4895518;29;20088;-79
2022/07/06 04:54:55;;;;;;;6.17;3.00;;;;;;;-145.18;100.00;46656.50;4896969;29;20073;-80
2022/07/06 04:57:21;;;;;;;8.00;3.30;;;;;;;-145.18;100.00;46658.44;4899752;29;20478;-79
2022/07/06 04:59:46;;;;;;;9.03;3.10;;;;;;;-145.18;100.00;46658.44;4895662;29;20398;-79
2022/07/06 05:02:11;;;;;;;6.10;3.30;;;;;;;-145.18;100.00;46656.50;4894731;29;20070;-78
2022/07/06 05:04:37;;;;;;;10.20;3.67;;;;;;;-145.18;100.00;46656.50;4895568;29;20124;-78
2022/07/06 05:07:02;;;;;;;7.60;3.43;;;;;;;-145.18;100.00;46658.44;4895017;29;20080;-79
2022/07/06 05:09:28;;;;;;;3.90;2.70;;;;;;;-145.18;100.00;46656.50;4895035;29;20040;-79
2022/07/06 05:11:53;;;;;;;7.00;3.07;;;;;;;-145.18;100.00;46656.50;4878539;29;20490;-78
2022/07/06 05:14:18;;;;;;;6.30;2.70;;;;;;;-145.18;100.00;46660.41;4878136;29;20068;-78
2022/07/06 05:16:44;;;;;;;7.30;2.57;;;;;;;-145.18;100.00;46654.53;4893849;29;20067;-78
2022/07/06 05:19:09;;;;;;;9.53;3.37;;;;;;;-145.18;100.00;46652.59;4895263;29;20072;-79
2022/07/06 05:21:34;;;;;;;6.30;2.63;;;;;;;-145.18;100.00;46658.44;4903932;29;20517;-77
2022/07/06 05:24:00;;;;;;;4.47;2.80;;;;;;;-145.18;100.00;46654.53;4894247;29;20040;-79
2022/07/06 05:26:25;;;;;;;8.33;2.67;;;;;;;-145.18;100.00;46656.50;4893784;29;20040;-79
2022/07/06 05:28:50;;;;;;;4.87;2.13;;;;;;;-145.18;100.00;46615.47;4903133;29;20032;-80
2022/07/06 05:31:16;;;;;;;4.73;2.53;;;;;;;-145.18;100.00;46615.47;4917220;29;20032;-80
2022/07/06 05:33:42;;;;;;;4.77;2.30;;;;;;;-145.18;100.00;46652.59;4911170;29;20071;-80
2022/07/06 05:36:07;;;;;;;10.63;3.10;;;;;;;-145.18;100.00;46652.59;4907524;29;20074;-79
2022/07/06 05:38:33;;;;;;;8.23;2.40;;;;;;;-145.18;100.00;46650.63;4897619;29;20508;-79
2022/07/06 05:40:58;;;;;;;6.03;2.33;;;;;;;-145.18;100.00;46611.56;4898217;29;20028;-79
2022/07/06 05:43:24;;;;;;;7.93;2.40;;;;;;;-145.18;100.00;46613.50;4897575;29;20044;-79
2022/07/06 05:45:49;;;;;;;4.23;1.80;;;;;;;-145.18;100.00;46611.56;4892006;29;20063;-79
2022/07/06 05:50:59;;;;;;;7.30;1.73;;;;;;;-145.18;100.00;46652.59;4898068;29;20041;-79
2022/07/06 05:53:24;;;;;;;6.57;1.30;;;;;;;-145.18;100.00;46652.59;4897534;29;20028;-79
2022/07/06 05:55:49;;;;;;;3.40;1.13;;;;;;;-145.18;100.00;46617.41;4898710;29;20470;-79
2022/07/06 05:58:15;;;;;;;4.10;1.00;;;;;;;-145.18;100.00;46617.41;4893636;29;20393;-79
2022/07/06 06:00:41;;;;;;;3.43;1.40;;;;;;;-145.18;100.00;46621.31;4897898;29;20037;-79
2022/07/06 06:03:06;;;;;;;4.20;0.90;;;;;;;-145.18;100.00;46623.28;4895863;29;20550;-79
2022/07/06 06:05:32;;;;;;;2.57;1.10;;;;;;;-145.18;100.00;46623.28;4898022;29;20068;-80
2022/07/06 06:07:57;;;;;;;3.50;1.10;;;;;;;-145.18;100.00;46621.31;4897075;29;20028;-79
2022/07/06 06:10:23;;;;;;;3.13;1.10;;;;;;;-145.18;100.00;46621.31;4886184;29;20387;-79
2022/07/06 06:12:49;;;;;;;6.03;1.40;;;;;;;-145.18;100.00;46621.31;4897117;29;20099;-79
2022/07/06 06:15:14;;;;;;;5.00;1.20;;;;;;;-145.18;100.00;46625.22;4897571;29;20081;-80
2022/07/06 06:17:40;;;;;;;2.10;0.93;;;;;;;-145.18;100.00;46625.22;4877691;29;20385;-79
2022/07/06 06:20:11;;;;;;;1.40;0.73;;;;;;;-145.18;100.00;46633.06;4897182;29;20084;-79
2022/07/06 06:22:51;;;;;;;3.43;1.00;;;;;;;-145.18;100.00;46636.94;4896249;29;20102;-80
2022/07/06 06:25:29;;;;;;;1.37;0.83;;;;;;;-145.18;100.00;46640.88;4897790;29;20040;-79
2022/07/06 06:27:54;;;;;;;8.63;2.30;;;;;;;-145.18;100.00;46646.72;4902096;29;20039;-80
2022/07/06 06:30:19;;;;;;;1.03;0.53;;;;;;;-145.18;100.00;46654.53;4916125;29;20039;-80
2022/07/06 06:32:45;;;;;;;2.83;0.87;;;;;;;-145.18;100.00;46654.53;4915762;29;20056;-79
2022/07/06 06:35:11;;;;;;;7.30;0.80;;;;;;;-145.18;100.00;46648.69;4915583;29;20156;-79
2022/07/06 06:37:37;;;;;;;3.57;0.87;;;;;;;-145.18;100.00;46646.72;4915661;29;20039;-79
2022/07/06 06:40:04;;;;;;;1.43;0.80;;;;;;;-145.18;100.00;46644.78;4915513;29;20481;-79
2022/07/06 06:42:29;;;;;;;1.27;0.53;;;;;;;-145.18;100.00;46646.72;4915723;29;20441;-79
2022/07/06 06:44:55;;;;;;;4.40;0.73;;;;;;;-145.18;100.00;46638.91;4915576;29;20051;-79
2022/07/06 06:47:20;;;;;;;2.23;0.60;;;;;;;-145.18;100.00;46638.91;4916016;29;20047;-79
2022/07/06 06:49:46;;;;;;;1.73;0.63;;;;;;;-145.18;100.00;46644.78;4915701;29;20123;-79
2022/07/06 06:52:11;;;;;;;2.70;1.00;;;;;;;-145.18;100.00;46654.53;4902213;29;20020;-79
2022/07/06 06:54:36;;;;;;;3.77;0.90;;;;;;;-145.18;100.00;46640.88;4910536;29;20048;-79
2022/07/06 06:57:02;;;;;;;2.67;0.60;;;;;;;-145.18;100.00;46623.28;4915586;29;20071;-79
2022/07/06 06:59:27;;;;;;;2.60;0.60;;;;;;;-145.18;100.00;46593.97;4911143;29;20033;-79
2022/07/06 07:01:53;;;;;;;2.30;0.77;;;;;;;-145.18;100.00;46588.13;4906237;29;20074;-79
2022/07/06 07:04:18;;;;;;;4.27;0.80;;;;;;;-145.18;100.00;46551.00;4915014;29;20111;-79
2022/07/06 07:06:43;;;;;;;2.30;0.40;;;;;;;-145.18;100.00;46537.34;4915501;29;20043;-79
2022/07/06 07:09:09;;;;;;;3.47;0.53;;;;;;;-145.18;100.00;46523.66;4879047;29;20032;-79
2022/07/06 07:11:34;;;;;;;2.30;0.60;;;;;;;-145.18;100.00;46529.53;4896521;29;20033;-80
2022/07/06 07:14:00;;;;;;;1.10;0.50;;;;;;;-145.18;100.00;46525.63;4894867;29;20036;-80
2022/07/06 07:16:26;;;;;;;3.23;0.70;;;;;;;-145.18;100.00;46529.53;4900509;29;20036;-80
2022/07/06 07:18:51;;;;;;;3.00;0.80;;;;;;;-145.18;100.00;46523.66;4899847;29;20059;-80
2022/07/06 07:21:17;;;;;;;2.20;0.50;;;;;;;-145.18;100.00;46527.56;4904327;29;20039;-80
2022/07/06 07:23:42;;;;;;;6.00;0.60;;;;;;;-145.18;100.00;46529.53;4896126;29;20037;-80
2022/07/06 07:26:07;;;;;;;1.43;0.50;;;;;;;-145.18;100.00;46521.72;4895565;29;20032;-80
2022/07/06 07:28:33;;;;;;;2.20;0.60;;;;;;;-145.18;100.00;46521.72;4910928;29;20500;-80
2022/07/06 07:30:58;;;;;;;4.03;0.60;;;;;;;-145.18;100.00;46525.63;4914681;29;20040;-80
2022/07/06 07:33:24;;;;;;;2.87;0.67;;;;;;;-145.18;100.00;46533.44;4914540;29;20344;-80
2022/07/06 07:35:49;;;;;;;2.13;0.70;;;;;;;-145.18;100.00;46543.19;4909151;29;20039;-81
2022/07/06 07:38:15;;;;;;;4.93;0.73;;;;;;;-145.18;100.00;46539.28;4907380;29;20056;-80
2022/07/06 07:40:40;;;;;;;2.10;0.70;;;;;;;-145.18;100.00;46547.09;4914732;29;20089;-80
2022/07/06 07:43:05;;;;;;;2.37;0.70;;;;;;;-145.18;100.00;46545.16;4914097;29;20063;-81
2022/07/06 07:45:31;;;;;;;3.07;0.50;;;;;;;-145.18;100.00;46543.19;4914615;29;20047;-80
2022/07/06 07:47:56;;;;;;;4.20;0.90;;;;;;;-145.18;100.00;46547.09;4914195;29;20036;-80
2022/07/06 07:50:22;;;;;;;2.17;0.50;;;;;;;-145.18;100.00;46549.06;4906781;29;20033;-80
2022/07/06 07:52:47;;;;;;;3.37;0.67;;;;;;;-145.18;100.00;46556.88;4895171;29;20409;-80
2022/07/06 07:55:12;;;;;;;2.77;0.70;;;;;;;-145.18;100.00;46547.09;4895097;29;20047;-81
2022/07/06 07:57:38;;;;;;;3.03;0.80;;;;;;;-145.18;100.00;46556.88;4895520;29;20032;-80
2022/07/06 08:00:05;;;;;;;2.50;0.53;;;;;;;-145.18;100.00;46554.91;4897896;29;20043;-80
2022/07/06 08:02:30;;;;;;;2.87;0.63;;;;;;;-145.18;100.00;46586.16;4899383;29;20060;-80
2022/07/06 08:04:55;;;;;;;1.53;0.50;;;;;;;-145.18;100.00;46562.72;4894726;29;20040;-80
2022/07/06 08:07:21;;;;;;;4.70;0.50;;;;;;;-145.18;100.00;46599.84;4895467;29;20032;-80
2022/07/06 08:09:46;;;;;;;2.43;0.50;;;;;;;-145.18;100.00;46613.50;4895273;29;20407;-80
2022/07/06 08:12:12;;;;;;;1.67;0.50;;;;;;;-145.18;100.00;46623.28;4895213;29;20040;-80
2022/07/06 08:14:37;;;;;;;1.27;0.50;;;;;;;-145.18;100.00;46650.63;4894858;29;20424;-81
2022/07/06 08:17:03;;;;;;;3.37;0.60;;;;;;;-145.18;100.00;47189.78;4894929;29;20128;-80
2022/07/06 08:19:30;;;;;;;2.77;0.50;;;;;;;-145.18;100.00;47295.28;4894674;29;20556;-80
2022/07/06 08:21:56;;;;;;;2.27;0.50;;;;;;;-145.18;100.00;47279.66;4895027;29;20617;-80
2022/07/06 08:24:21;;;;;;;0.87;0.40;;;;;;;-145.18;100.00;47258.16;4894577;29;20029;-80
2022/07/06 08:26:46;;;;;;;2.60;0.70;;;;;;;-145.18;100.00;47160.47;4896556;29;20040;-80
2022/07/06 08:29:12;;;;;;;3.07;0.60;;;;;;;-145.18;100.00;47248.41;4913382;29;20032;-80
2022/07/06 08:31:37;;;;;;;2.13;0.50;;;;;;;-145.18;100.00;47254.25;4897137;29;20119;-80
2022/07/06 08:34:02;;;;;;;1.17;0.50;;;;;;;-145.18;100.00;47199.56;4895997;29;20047;-80
2022/07/06 08:36:28;;;;;;;2.67;1.23;;;;;;;-145.18;100.00;47213.22;4909421;29;20036;-80
2022/07/06 08:38:54;;;;;;;2.63;0.40;;;;;;;-145.18;100.00;47205.41;4892871;29;20032;-80
2022/07/06 08:41:22;;;;;;;1.67;0.40;;;;;;;-145.18;100.00;47217.13;4895038;29;20059;-79
2022/07/06 08:43:50;;;;;;;1.83;0.50;;;;;;;-145.18;100.00;47148.75;4894295;29;20032;-79
2022/07/06 08:46:16;;;;;;;1.50;0.70;;;;;;;-145.18;100.00;47144.84;4897159;29;20731;-79
2022/07/06 08:48:41;;;;;;;3.17;0.47;;;;;;;-145.18;100.00;47142.91;4894163;29;20131;-79
2022/07/06 08:51:07;;;;;;;1.23;0.40;;;;;;;-145.18;100.00;47125.31;4878031;29;20044;-80
2022/07/06 08:53:33;;;;;;;0.97;0.50;;;;;;;-145.18;100.00;47131.19;4894389;29;20056;-80
2022/07/06 08:55:59;;;;;;;3.93;0.60;;;;;;;-145.18;100.00;47121.41;4895052;29;20052;-79
2022/07/06 08:58:27;;;;;;;1.33;0.50;;;;;;;-145.18;100.00;47123.38;4890053;29;20037;-79
2022/07/06 09:00:56;;;;;;;2.73;0.70;;;;;;;-145.18;100.00;47127.28;4909768;29;20040;-80
2022/07/06 09:03:23;;;;;;;3.33;0.50;;;;;;;-145.18;100.00;47107.72;4897872;29;20830;-80
2022/07/06 09:05:50;;;;;;;2.80;0.60;;;;;;;-145.18;100.00;47129.22;4898728;29;20044;-80
2022/07/06 09:08:15;;;;;;;1.53;0.77;;;;;;;-145.18;100.00;47123.38;4881468;29;20045;-80
2022/07/06 09:10:40;;;;;;;3.03;0.63;;;;;;;-145.18;100.00;47142.91;4905800;29;20036;-79
2022/07/06 09:13:08;;;;;;;0.53;0.53;;;;;;;-145.18;100.00;47125.31;4897800;29;20133;-80
2022/07/06 09:15:35;;;;;;;1.03;0.50;;;;;;;-145.18;100.00;47144.84;4898562;29;20402;-80
2022/07/06 09:18:03;;;;;;;9.30;0.90;;;;;;;-145.18;100.00;47135.09;4897913;29;20040;-80
2022/07/06 09:20:29;;;;;;;2.13;0.40;;;;;;;-145.18;100.00;47144.84;4897712;29;20033;-80
2022/07/06 09:23:00;;;;;;;11.53;0.87;;;;;;;-145.18;100.00;47150.72;4895944;29;20051;-80
2022/07/06 09:25:26;;;;;;;28.40;2.57;;;;;;;-145.18;100.00;47140.94;4881509;29;20040;-80
2022/07/06 09:27:54;;;;;;;10.03;0.73;;;;;;;-145.18;100.00;47148.75;4902437;29;20486;-80
2022/07/06 09:30:20;;;;;;;19.47;1.47;;;;;;;-145.18;100.00;47135.09;4901254;29;20172;-80
2022/07/06 09:32:48;;;;;;;2.83;0.70;;;;;;;-145.18;100.00;47156.56;4912658;29;20138;-80
2022/07/06 09:35:23;;;;;;;3.13;0.57;;;;;;;-145.18;100.00;47154.63;4901324;29;20059;-80
2022/07/06 09:38:10;;;;;;;1.52;0.50;;;;;;;-145.18;100.00;47133.13;4898240;29;20040;-80
2022/07/06 09:40:42;;;;;;;4.50;0.70;;;;;;;-145.18;100.00;47148.75;4897933;29;20028;-80
2022/07/06 09:43:15;;;;;;;0.93;0.60;;;;;;;-145.18;100.00;47144.84;4902433;29;20020;-80
2022/07/06 09:45:44;;;;;;;2.50;0.50;;;;;;;-145.18;100.00;47139.00;4900671;29;20077;-80
2022/07/06 09:48:23;;;;;;;1.90;0.60;;;;;;;-145.18;100.00;47135.09;4897544;29;20082;-80
2022/07/06 09:50:56;;;;;;;3.40;0.70;;;;;;;-145.18;100.00;47133.13;4897542;29;20040;-80
2022/07/06 09:53:26;;;;;;;1.17;0.50;;;;;;;-145.18;100.00;47121.41;4888662;29;20025;-80
2022/07/06 09:55:58;;;;;;;1.10;0.53;;;;;;;-145.18;100.00;47133.13;4897344;29;20517;-79
2022/07/06 09:58:24;;;;;;;0.63;0.50;;;;;;;-145.18;100.00;47131.19;4897129;29;20048;-79
2022/07/06 10:00:49;;;;;;;3.90;0.60;;;;;;;-145.18;100.00;47117.50;4897767;29;20482;-80
2022/07/06 10:03:17;;;;;;;2.13;0.47;;;;;;;-145.18;100.00;47107.72;4896842;29;20057;-79
2022/07/06 10:05:47;;;;;;;3.43;0.60;;;;;;;-145.18;100.00;47117.50;4898417;29;20092;-79
2022/07/06 10:08:13;;;;;;;1.60;0.63;;;;;;;-145.18;100.00;47121.41;4897220;29;20111;-80
2022/07/06 10:10:39;;;;;;;1.70;0.63;;;;;;;-145.18;100.00;47127.28;4897368;29;20055;-80
2022/07/06 10:13:06;;;;;;;0.97;0.60;;;;;;;-145.18;100.00;47121.41;4897295;29;20047;-79
2022/07/06 10:15:32;;;;;;;1.07;0.60;;;;;;;-145.18;100.00;47117.50;4897111;29;20043;-79
2022/07/06 10:17:59;;;;;;;1.67;0.60;;;;;;;-145.18;100.00;47097.97;4897508;29;20418;-80
2022/07/06 10:20:28;;;;;;;1.90;0.67;;;;;;;-145.18;100.00;47125.31;4896956;29;20493;-79
2022/07/06 10:22:54;;;;;;;3.00;0.70;;;;;;;-145.18;100.00;47111.66;4893512;29;20036;-79
2022/07/06 10:25:21;;;;;;;1.23;0.73;;;;;;;-145.18;100.00;47125.31;4897029;29;20043;-80
2022/07/06 10:27:47;;;;;;;6.87;0.93;;;;;;;-145.18;100.00;47107.72;4906398;29;20123;-80
2022/07/06 10:30:14;;;;;;;1.67;0.60;;;;;;;-145.18;100.00;47129.22;4915328;29;20044;-78
2022/07/06 10:32:42;;;;;;;0.67;0.50;;;;;;;-145.18;100.00;47135.09;4916330;29;20040;-79
2022/07/06 10:35:08;;;;;;;3.13;0.60;;;;;;;-145.18;100.00;47131.19;4915226;29;20151;-80
2022/07/06 10:37:33;;;;;;;1.03;0.50;;;;;;;-145.18;100.00;47121.41;4916153;29;20040;-79
2022/07/06 10:42:43;;;;;;;1.07;0.50;;;;;;;-145.18;99.70;47103.81;4891513;29;20043;-79
2022/07/06 10:45:10;;;;;;;1.43;0.43;;;;;;;-145.18;100.00;47072.56;4914793;29;20016;-78
2022/07/06 10:47:36;;;;;;;0.50;0.50;;;;;;;-145.18;100.00;47078.44;4916214;29;20032;-77
2022/07/06 10:50:05;;;;;;;1.40;0.73;;;;;;;-145.18;98.09;47094.06;4915057;29;20587;-77
2022/07/06 10:53:13;;;;;;;2.93;0.60;;;;;;;-145.18;100.00;47097.97;4915819;29;20413;-80
2022/07/06 10:55:42;;;;;;;1.07;0.63;;;;;;;-145.18;97.83;47068.66;4895910;29;20051;-77
2022/07/06 10:58:07;;;;;;;2.03;0.70;;;;;;;-145.18;99.43;47064.75;4913892;29;20032;-78
2022/07/06 11:00:50;;;;;;;2.43;0.80;;;;;;;-145.18;100.00;47084.28;4914118;29;20040;-77
2022/07/06 11:03:37;;;;;;;2.80;0.80;;;;;;;-145.18;95.17;47076.47;4888664;29;20059;-77
2022/07/06 11:06:24;;;;;;;2.93;0.80;;;;;;;-145.18;94.89;47070.63;4895090;29;20132;-78
2022/07/06 11:08:49;;;;;;;2.10;0.90;;;;;;;-145.18;94.79;47074.53;4894414;29;20081;-76
2022/07/06 11:11:20;;;;;;;2.60;0.80;;;;;;;-145.18;94.84;47078.44;4895663;29;20430;-78
2022/07/06 11:14:05;;;;;;;3.03;1.00;;;;;;;-145.18;94.59;47056.94;4895834;29;20630;-78